sensor_id;sensor_type;location;lat;lon;timestamp;P1;durP1;ratioP1;P2;durP2;ratioP2
4385;SDS011;2207;53.540;10.042;2023-06-19T03:10:36;8.48;;;7.10;;
4385;SDS011;2207;53.540;10.042;2023-06-19T03:13:03;8.43;;;7.20;;
4385;SDS011;2207;53.540;10.042;2023-06-19T03:15:30;8.30;;;7.33;;
4385;SDS011;2207;53.540;10.042;2023-06-19T03:17:56;8.00;;;6.70;;
4385;SDS011;2207;53.540;10.042;2023-06-19T03:20:23;8.23;;;6.47;;
4385;SDS011;2207;53.540;10.042;2023-06-19T03:22:51;13.43;;;7.30;;
4385;SDS011;2207;53.540;10.042;2023-06-19T03:25:18;11.53;;;8.43;;
4385;SDS011;2207;53.540;10.042;2023-06-19T03:27:45;8.40;;;7.70;;
4385;SDS011;2207;53.540;10.042;2023-06-19T03:30:12;16.33;;;8.37;;
4385;SDS011;2207;53.540;10.042;2023-06-19T03:32:38;8.10;;;7.30;;
4385;SDS011;2207;53.540;10.042;2023-06-19T03:35:05;8.07;;;7.23;;
4385;SDS011;2207;53.540;10.042;2023-06-19T03:37:32;7.70;;;7.00;;
4385;SDS011;2207;53.540;10.042;2023-06-19T03:40:00;6.87;;;6.27;;
4385;SDS011;2207;53.540;10.042;2023-06-19T03:42:28;8.57;;;7.47;;
4385;SDS011;2207;53.540;10.042;2023-06-19T03:44:54;8.83;;;7.50;;
4385;SDS011;2207;53.540;10.042;2023-06-19T03:47:22;11.93;;;8.40;;
4385;SDS011;2207;53.540;10.042;2023-06-19T03:49:48;8.10;;;7.30;;
4385;SDS011;2207;53.540;10.042;2023-06-19T03:52:15;11.90;;;7.07;;
4385;SDS011;2207;53.540;10.042;2023-06-19T03:54:42;8.87;;;7.80;;
4385;SDS011;2207;53.540;10.042;2023-06-19T03:57:10;10.27;;;7.60;;
4385;SDS011;2207;53.540;10.042;2023-06-19T03:59:37;7.67;;;6.97;;
4385;SDS011;2207;53.540;10.042;2023-06-19T04:02:03;8.77;;;7.20;;
4385;SDS011;2207;53.540;10.042;2023-06-19T04:04:30;9.63;;;7.27;;
4385;SDS011;2207;53.540;10.042;2023-06-19T04:06:57;9.00;;;8.20;;
4385;SDS011;2207;53.540;10.042;2023-06-19T04:09:24;10.03;;;8.03;;
4385;SDS011;2207;53.540;10.042;2023-06-19T04:11:51;8.37;;;7.20;;
4385;SDS011;2207;53.540;10.042;2023-06-19T04:14:19;9.40;;;8.40;;
4385;SDS011;2207;53.540;10.042;2023-06-19T04:16:48;10.50;;;7.87;;
4385;SDS011;2207;53.540;10.042;2023-06-19T04:19:14;9.43;;;8.10;;
4385;SDS011;2207;53.540;10.042;2023-06-19T04:21:41;10.77;;;7.10;;
4385;SDS011;2207;53.540;10.042;2023-06-19T04:24:08;8.73;;;7.20;;
4385;SDS011;2207;53.540;10.042;2023-06-19T04:26:35;8.50;;;7.30;;
4385;SDS011;2207;53.540;10.042;2023-06-19T04:29:02;9.90;;;7.57;;
4385;SDS011;2207;53.540;10.042;2023-06-19T04:31:31;7.60;;;6.90;;
4385;SDS011;2207;53.540;10.042;2023-06-19T04:33:58;6.43;;;5.83;;
4385;SDS011;2207;53.540;10.042;2023-06-19T04:36:25;10.17;;;7.27;;
4385;SDS011;2207;53.540;10.042;2023-06-19T04:38:51;8.40;;;7.60;;
4385;SDS011;2207;53.540;10.042;2023-06-19T04:41:18;7.70;;;6.63;;
4385;SDS011;2207;53.540;10.042;2023-06-19T04:43:45;7.30;;;6.63;;
4385;SDS011;2207;53.540;10.042;2023-06-19T04:46:11;10.33;;;8.50;;
4385;SDS011;2207;53.540;10.042;2023-06-19T04:48:39;13.43;;;8.60;;
4385;SDS011;2207;53.540;10.042;2023-06-19T04:51:06;8.90;;;6.93;;
4385;SDS011;2207;53.540;10.042;2023-06-19T04:53:33;11.50;;;7.90;;
4385;SDS011;2207;53.540;10.042;2023-06-19T04:55:59;8.10;;;7.40;;
4385;SDS011;2207;53.540;10.042;2023-06-19T04:58:26;7.50;;;6.80;;
4385;SDS011;2207;53.540;10.042;2023-06-19T05:00:53;10.90;;;6.90;;
4385;SDS011;2207;53.540;10.042;2023-06-19T05:03:20;10.90;;;7.67;;
4385;SDS011;2207;53.540;10.042;2023-06-19T05:05:48;7.93;;;7.13;;
4385;SDS011;2207;53.540;10.042;2023-06-19T05:08:15;9.30;;;7.43;;
4385;SDS011;2207;53.540;10.042;2023-06-19T05:10:42;12.90;;;8.00;;
4385;SDS011;2207;53.540;10.042;2023-06-19T05:13:08;8.63;;;7.73;;
4385;SDS011;2207;53.540;10.042;2023-06-19T05:15:35;9.70;;;8.63;;
4385;SDS011;2207;53.540;10.042;2023-06-19T05:18:02;9.40;;;8.30;;
4385;SDS011;2207;53.540;10.042;2023-06-19T05:20:29;11.77;;;8.43;;
4385;SDS011;2207;53.540;10.042;2023-06-19T05:22:57;12.30;;;7.73;;
4385;SDS011;2207;53.540;10.042;2023-06-19T05:25:24;9.93;;;9.00;;
4385;SDS011;2207;53.540;10.042;2023-06-19T05:27:51;10.80;;;8.20;;
4385;SDS011;2207;53.540;10.042;2023-06-19T05:30:17;7.43;;;6.70;;
4385;SDS011;2207;53.540;10.042;2023-06-19T05:32:44;13.23;;;7.03;;
4385;SDS011;2207;53.540;10.042;2023-06-19T05:35:11;15.43;;;7.13;;
4385;SDS011;2207;53.540;10.042;2023-06-19T05:37:40;9.17;;;7.57;;
4385;SDS011;2207;53.540;10.042;2023-06-19T05:40:10;8.00;;;7.30;;
4385;SDS011;2207;53.540;10.042;2023-06-19T05:42:37;10.83;;;8.17;;
4385;SDS011;2207;53.540;10.042;2023-06-19T05:45:04;10.47;;;7.53;;
4385;SDS011;2207;53.540;10.042;2023-06-19T05:47:31;10.70;;;7.50;;
4385;SDS011;2207;53.540;10.042;2023-06-19T05:49:58;9.37;;;8.23;;
4385;SDS011;2207;53.540;10.042;2023-06-19T05:52:25;13.70;;;8.80;;
4385;SDS011;2207;53.540;10.042;2023-06-19T05:54:52;20.83;;;8.33;;
4385;SDS011;2207;53.540;10.042;2023-06-19T05:57:20;9.33;;;7.50;;
4385;SDS011;2207;53.540;10.042;2023-06-19T05:59:47;8.00;;;7.13;;
4385;SDS011;2207;53.540;10.042;2023-06-19T06:02:14;8.73;;;7.93;;
4385;SDS011;2207;53.540;10.042;2023-06-19T06:04:41;11.63;;;8.20;;
4385;SDS011;2207;53.540;10.042;2023-06-19T06:07:08;13.63;;;10.47;;
4385;SDS011;2207;53.540;10.042;2023-06-19T06:09:34;12.47;;;8.63;;
4385;SDS011;2207;53.540;10.042;2023-06-19T06:12:01;9.13;;;7.73;;
4385;SDS011;2207;53.540;10.042;2023-06-19T06:14:29;8.80;;;7.90;;
4385;SDS011;2207;53.540;10.042;2023-06-19T06:16:56;11.43;;;8.40;;
4385;SDS011;2207;53.540;10.042;2023-06-19T06:19:23;11.07;;;8.53;;
4385;SDS011;2207;53.540;10.042;2023-06-19T06:21:50;9.17;;;8.37;;
4385;SDS011;2207;53.540;10.042;2023-06-19T06:24:16;8.40;;;7.60;;
4385;SDS011;2207;53.540;10.042;2023-06-19T06:26:43;9.83;;;8.80;;
4385;SDS011;2207;53.540;10.042;2023-06-19T06:29:10;9.23;;;8.40;;
4385;SDS011;2207;53.540;10.042;2023-06-19T06:31:38;9.47;;;8.57;;
4385;SDS011;2207;53.540;10.042;2023-06-19T06:34:06;8.43;;;7.53;;
4385;SDS011;2207;53.540;10.042;2023-06-19T06:36:33;10.47;;;9.17;;
4385;SDS011;2207;53.540;10.042;2023-06-19T06:39:00;9.30;;;7.87;;
4385;SDS011;2207;53.540;10.042;2023-06-19T06:41:27;9.70;;;8.53;;
4385;SDS011;2207;53.540;10.042;2023-06-19T06:43:54;9.03;;;8.13;;
4385;SDS011;2207;53.540;10.042;2023-06-19T06:46:21;9.47;;;8.03;;
4385;SDS011;2207;53.540;10.042;2023-06-19T06:48:49;8.80;;;8.00;;
4385;SDS011;2207;53.540;10.042;2023-06-19T06:51:16;16.97;;;8.77;;
4385;SDS011;2207;53.540;10.042;2023-06-19T06:53:42;10.07;;;9.07;;
4385;SDS011;2207;53.540;10.042;2023-06-19T06:56:09;10.27;;;8.37;;
4385;SDS011;2207;53.540;10.042;2023-06-19T06:58:36;9.17;;;8.30;;
4385;SDS011;2207;53.540;10.042;2023-06-19T07:01:04;11.30;;;9.10;;
4385;SDS011;2207;53.540;10.042;2023-06-19T07:03:30;14.63;;;9.20;;
4385;SDS011;2207;53.540;10.042;2023-06-19T07:05:58;13.80;;;9.23;;
4385;SDS011;2207;53.540;10.042;2023-06-19T07:08:26;12.23;;;8.97;;
4385;SDS011;2207;53.540;10.042;2023-06-19T07:10:52;9.80;;;8.70;;
4385;SDS011;2207;53.540;10.042;2023-06-19T07:13:19;10.10;;;9.00;;
4385;SDS011;2207;53.540;10.042;2023-06-19T07:15:46;9.67;;;8.67;;
4385;SDS011;2207;53.540;10.042;2023-06-19T07:18:12;12.23;;;8.20;;
4385;SDS011;2207;53.540;10.042;2023-06-19T07:20:39;8.57;;;7.43;;
4385;SDS011;2207;53.540;10.042;2023-06-19T07:23:07;11.10;;;10.10;;
4385;SDS011;2207;53.540;10.042;2023-06-19T07:25:35;10.53;;;9.50;;
4385;SDS011;2207;53.540;10.042;2023-06-19T07:28:02;18.47;;;9.50;;
4385;SDS011;2207;53.540;10.042;2023-06-19T07:30:30;12.80;;;9.20;;
4385;SDS011;2207;53.540;10.042;2023-06-19T07:32:57;10.07;;;9.07;;
4385;SDS011;2207;53.540;10.042;2023-06-19T07:35:24;9.53;;;8.63;;
4385;SDS011;2207;53.540;10.042;2023-06-19T07:37:51;10.20;;;9.20;;
4385;SDS011;2207;53.540;10.042;2023-06-19T07:40:19;11.30;;;8.80;;
4385;SDS011;2207;53.540;10.042;2023-06-19T07:42:45;9.27;;;8.33;;
4385;SDS011;2207;53.540;10.042;2023-06-19T07:45:12;12.07;;;10.07;;
4385;SDS011;2207;53.540;10.042;2023-06-19T07:47:40;10.03;;;9.00;;
4385;SDS011;2207;53.540;10.042;2023-06-19T07:50:07;9.80;;;8.90;;
4385;SDS011;2207;53.540;10.042;2023-06-19T07:52:37;9.40;;;8.20;;
4385;SDS011;2207;53.540;10.042;2023-06-19T07:55:04;10.20;;;9.27;;
4385;SDS011;2207;53.540;10.042;2023-06-19T07:57:33;11.33;;;9.40;;
4385;SDS011;2207;53.540;10.042;2023-06-19T08:00:01;11.60;;;8.87;;
4385;SDS011;2207;53.540;10.042;2023-06-19T08:02:34;10.80;;;9.23;;
4385;SDS011;2207;53.540;10.042;2023-06-19T08:05:01;12.90;;;9.03;;
4385;SDS011;2207;53.540;10.042;2023-06-19T08:07:28;10.30;;;9.00;;
4385;SDS011;2207;53.540;10.042;2023-06-19T08:09:55;12.20;;;9.20;;
4385;SDS011;2207;53.540;10.042;2023-06-19T08:12:21;11.63;;;10.53;;
4385;SDS011;2207;53.540;10.042;2023-06-19T08:14:49;10.13;;;8.90;;
4385;SDS011;2207;53.540;10.042;2023-06-19T08:17:16;10.93;;;9.03;;
4385;SDS011;2207;53.540;10.042;2023-06-19T08:19:43;10.20;;;9.30;;
4385;SDS011;2207;53.540;10.042;2023-06-19T08:22:10;13.83;;;9.43;;
4385;SDS011;2207;53.540;10.042;2023-06-19T08:24:36;18.67;;;9.27;;
4385;SDS011;2207;53.540;10.042;2023-06-19T08:27:05;10.80;;;9.47;;
4385;SDS011;2207;53.540;10.042;2023-06-19T08:29:32;10.63;;;9.60;;
4385;SDS011;2207;53.540;10.042;2023-06-19T08:32:00;10.70;;;9.80;;
4385;SDS011;2207;53.540;10.042;2023-06-19T08:34:28;11.20;;;10.20;;
4385;SDS011;2207;53.540;10.042;2023-06-19T08:36:54;11.43;;;9.00;;
4385;SDS011;2207;53.540;10.042;2023-06-19T08:39:21;10.20;;;9.20;;
4385;SDS011;2207;53.540;10.042;2023-06-19T08:41:48;9.93;;;9.03;;
4385;SDS011;2207;53.540;10.042;2023-06-19T08:44:15;10.90;;;9.80;;
4385;SDS011;2207;53.540;10.042;2023-06-19T08:46:41;12.30;;;8.73;;
4385;SDS011;2207;53.540;10.042;2023-06-19T08:49:09;10.27;;;9.17;;
4385;SDS011;2207;53.540;10.042;2023-06-19T08:51:36;11.17;;;10.13;;
4385;SDS011;2207;53.540;10.042;2023-06-19T08:54:03;10.37;;;9.47;;
4385;SDS011;2207;53.540;10.042;2023-06-19T08:56:31;9.20;;;8.47;;
4385;SDS011;2207;53.540;10.042;2023-06-19T08:59:07;23.07;;;9.57;;
4385;SDS011;2207;53.540;10.042;2023-06-19T09:01:35;14.10;;;9.90;;
4385;SDS011;2207;53.540;10.042;2023-06-19T09:04:07;9.90;;;8.90;;
4385;SDS011;2207;53.540;10.042;2023-06-19T09:06:36;11.30;;;10.30;;
4385;SDS011;2207;53.540;10.042;2023-06-19T09:09:12;11.87;;;9.77;;
4385;SDS011;2207;53.540;10.042;2023-06-19T09:11:40;11.57;;;9.93;;
4385;SDS011;2207;53.540;10.042;2023-06-19T09:14:08;10.90;;;9.90;;
4385;SDS011;2207;53.540;10.042;2023-06-19T09:16:38;9.80;;;8.90;;
4385;SDS011;2207;53.540;10.042;2023-06-19T09:19:06;9.80;;;8.70;;
4385;SDS011;2207;53.540;10.042;2023-06-19T09:21:36;14.33;;;11.03;;
4385;SDS011;2207;53.540;10.042;2023-06-19T09:24:04;11.53;;;10.33;;
4385;SDS011;2207;53.540;10.042;2023-06-19T09:26:32;11.97;;;10.77;;
4385;SDS011;2207;53.540;10.042;2023-06-19T09:29:09;15.20;;;10.43;;
4385;SDS011;2207;53.540;10.042;2023-06-19T09:31:36;11.53;;;10.43;;
4385;SDS011;2207;53.540;10.042;2023-06-19T09:34:04;10.33;;;9.33;;
4385;SDS011;2207;53.540;10.042;2023-06-19T09:36:31;11.00;;;9.60;;
4385;SDS011;2207;53.540;10.042;2023-06-19T09:39:00;10.80;;;9.90;;
4385;SDS011;2207;53.540;10.042;2023-06-19T09:41:29;10.37;;;8.93;;
4385;SDS011;2207;53.540;10.042;2023-06-19T09:43:56;10.53;;;9.53;;
4385;SDS011;2207;53.540;10.042;2023-06-19T09:46:25;10.97;;;9.53;;
4385;SDS011;2207;53.540;10.042;2023-06-19T09:48:56;12.97;;;9.30;;
4385;SDS011;2207;53.540;10.042;2023-06-19T09:51:27;9.40;;;8.60;;
4385;SDS011;2207;53.540;10.042;2023-06-19T09:53:57;11.97;;;8.90;;
4385;SDS011;2207;53.540;10.042;2023-06-19T09:56:25;9.27;;;8.37;;
4385;SDS011;2207;53.540;10.042;2023-06-19T09:58:54;10.20;;;9.30;;
4385;SDS011;2207;53.540;10.042;2023-06-19T10:01:25;9.70;;;8.90;;
4385;SDS011;2207;53.540;10.042;2023-06-19T10:04:01;8.10;;;7.40;;
4385;SDS011;2207;53.540;10.042;2023-06-19T10:06:29;10.63;;;8.83;;
4385;SDS011;2207;53.540;10.042;2023-06-19T10:08:56;11.40;;;9.20;;
4385;SDS011;2207;53.540;10.042;2023-06-19T10:11:47;9.67;;;8.87;;
4385;SDS011;2207;53.540;10.042;2023-06-19T10:14:17;9.10;;;8.30;;
4385;SDS011;2207;53.540;10.042;2023-06-19T10:16:44;8.97;;;7.47;;
4385;SDS011;2207;53.540;10.042;2023-06-19T10:19:11;9.20;;;8.30;;
4385;SDS011;2207;53.540;10.042;2023-06-19T10:21:46;9.70;;;8.80;;
4385;SDS011;2207;53.540;10.042;2023-06-19T10:24:14;9.53;;;8.73;;
4385;SDS011;2207;53.540;10.042;2023-06-19T10:26:43;9.53;;;8.73;;
4385;SDS011;2207;53.540;10.042;2023-06-19T10:29:15;8.77;;;8.00;;
4385;SDS011;2207;53.540;10.042;2023-06-19T10:31:42;11.50;;;8.90;;
4385;SDS011;2207;53.540;10.042;2023-06-19T10:34:09;10.07;;;9.17;;
4385;SDS011;2207;53.540;10.042;2023-06-19T10:36:37;12.37;;;8.60;;
4385;SDS011;2207;53.540;10.042;2023-06-19T10:39:03;8.83;;;8.03;;
4385;SDS011;2207;53.540;10.042;2023-06-19T10:41:32;10.37;;;9.37;;
4385;SDS011;2207;53.540;10.042;2023-06-19T10:43:59;16.47;;;9.93;;
4385;SDS011;2207;53.540;10.042;2023-06-19T10:46:31;10.13;;;9.17;;
4385;SDS011;2207;53.540;10.042;2023-06-19T10:48:59;12.10;;;9.50;;
4385;SDS011;2207;53.540;10.042;2023-06-19T10:51:29;10.00;;;9.00;;
4385;SDS011;2207;53.540;10.042;2023-06-19T10:53:56;8.63;;;7.93;;
4385;SDS011;2207;53.540;10.042;2023-06-19T10:56:24;10.13;;;9.20;;
4385;SDS011;2207;53.540;10.042;2023-06-19T10:58:56;9.70;;;8.27;;
4385;SDS011;2207;53.540;10.042;2023-06-19T11:01:35;10.70;;;8.83;;
4385;SDS011;2207;53.540;10.042;2023-06-19T11:04:04;10.30;;;8.60;;
4385;SDS011;2207;53.540;10.042;2023-06-19T11:06:31;9.50;;;8.13;;
4385;SDS011;2207;53.540;10.042;2023-06-19T11:08:59;8.23;;;7.50;;
4385;SDS011;2207;53.540;10.042;2023-06-19T11:11:37;9.00;;;7.80;;
4385;SDS011;2207;53.540;10.042;2023-06-19T11:14:05;10.03;;;8.40;;
4385;SDS011;2207;53.540;10.042;2023-06-19T11:16:32;13.67;;;8.30;;
4385;SDS011;2207;53.540;10.042;2023-06-19T11:19:01;12.80;;;8.97;;
4385;SDS011;2207;53.540;10.042;2023-06-19T11:21:31;9.03;;;8.13;;
4385;SDS011;2207;53.540;10.042;2023-06-19T11:24:02;9.93;;;8.93;;
4385;SDS011;2207;53.540;10.042;2023-06-19T11:26:33;10.97;;;8.80;;
4385;SDS011;2207;53.540;10.042;2023-06-19T11:29:01;9.73;;;8.80;;
4385;SDS011;2207;53.540;10.042;2023-06-19T11:31:28;10.33;;;7.90;;
4385;SDS011;2207;53.540;10.042;2023-06-19T11:33:55;10.73;;;8.07;;
4385;SDS011;2207;53.540;10.042;2023-06-19T11:36:25;11.17;;;8.87;;
4385;SDS011;2207;53.540;10.042;2023-06-19T11:38:51;10.60;;;9.00;;
4385;SDS011;2207;53.540;10.042;2023-06-19T11:41:24;12.07;;;8.10;;
4385;SDS011;2207;53.540;10.042;2023-06-19T11:43:57;10.07;;;9.00;;
4385;SDS011;2207;53.540;10.042;2023-06-19T11:46:27;13.33;;;8.00;;
4385;SDS011;2207;53.540;10.042;2023-06-19T11:48:55;13.00;;;7.83;;
4385;SDS011;2207;53.540;10.042;2023-06-19T11:51:34;11.17;;;8.50;;
4385;SDS011;2207;53.540;10.042;2023-06-19T11:54:00;8.37;;;7.57;;
4385;SDS011;2207;53.540;10.042;2023-06-19T11:56:28;8.40;;;7.63;;
4385;SDS011;2207;53.540;10.042;2023-06-19T11:58:55;7.83;;;7.13;;
4385;SDS011;2207;53.540;10.042;2023-06-19T12:01:22;7.97;;;7.17;;
4385;SDS011;2207;53.540;10.042;2023-06-19T12:03:48;7.30;;;6.33;;
4385;SDS011;2207;53.540;10.042;2023-06-19T12:06:16;7.80;;;7.10;;
4385;SDS011;2207;53.540;10.042;2023-06-19T12:08:45;10.17;;;6.50;;
4385;SDS011;2207;53.540;10.042;2023-06-19T12:11:11;7.17;;;6.20;;
4385;SDS011;2207;53.540;10.042;2023-06-19T12:13:38;8.23;;;6.80;;
4385;SDS011;2207;53.540;10.042;2023-06-19T12:16:06;6.90;;;6.20;;
4385;SDS011;2207;53.540;10.042;2023-06-19T12:18:33;6.87;;;5.67;;
4385;SDS011;2207;53.540;10.042;2023-06-19T12:20:59;8.07;;;5.37;;
4385;SDS011;2207;53.540;10.042;2023-06-19T12:23:26;6.73;;;5.73;;
4385;SDS011;2207;53.540;10.042;2023-06-19T12:25:54;6.80;;;5.40;;
4385;SDS011;2207;53.540;10.042;2023-06-19T12:28:21;11.57;;;5.77;;
4385;SDS011;2207;53.540;10.042;2023-06-19T12:30:48;7.40;;;5.43;;
4385;SDS011;2207;53.540;10.042;2023-06-19T12:33:16;7.43;;;5.73;;
4385;SDS011;2207;53.540;10.042;2023-06-19T12:35:44;7.40;;;5.43;;
4385;SDS011;2207;53.540;10.042;2023-06-19T12:38:11;12.90;;;5.07;;
4385;SDS011;2207;53.540;10.042;2023-06-19T12:40:38;6.33;;;5.83;;
4385;SDS011;2207;53.540;10.042;2023-06-19T12:43:06;8.20;;;5.50;;
4385;SDS011;2207;53.540;10.042;2023-06-19T12:45:33;8.07;;;5.70;;
4385;SDS011;2207;53.540;10.042;2023-06-19T12:47:59;9.57;;;6.47;;
4385;SDS011;2207;53.540;10.042;2023-06-19T12:50:26;8.00;;;6.07;;
4385;SDS011;2207;53.540;10.042;2023-06-19T12:52:53;6.43;;;5.73;;
4385;SDS011;2207;53.540;10.042;2023-06-19T12:55:19;9.20;;;5.93;;
4385;SDS011;2207;53.540;10.042;2023-06-19T12:57:46;17.03;;;6.13;;
4385;SDS011;2207;53.540;10.042;2023-06-19T13:00:15;6.63;;;6.03;;
4385;SDS011;2207;53.540;10.042;2023-06-19T13:02:42;8.27;;;5.43;;
4385;SDS011;2207;53.540;10.042;2023-06-19T13:05:11;6.00;;;5.40;;
4385;SDS011;2207;53.540;10.042;2023-06-19T13:07:38;6.10;;;5.53;;
4385;SDS011;2207;53.540;10.042;2023-06-19T13:10:05;5.67;;;4.60;;
4385;SDS011;2207;53.540;10.042;2023-06-19T13:12:32;8.73;;;5.60;;
4385;SDS011;2207;53.540;10.042;2023-06-19T13:14:59;7.47;;;4.60;;
4385;SDS011;2207;53.540;10.042;2023-06-19T13:17:27;5.43;;;4.70;;
4385;SDS011;2207;53.540;10.042;2023-06-19T13:19:54;4.87;;;4.30;;
4385;SDS011;2207;53.540;10.042;2023-06-19T13:22:21;5.73;;;4.23;;
4385;SDS011;2207;53.540;10.042;2023-06-19T13:24:48;9.87;;;5.00;;
4385;SDS011;2207;53.540;10.042;2023-06-19T13:27:14;5.93;;;4.00;;
4385;SDS011;2207;53.540;10.042;2023-06-19T13:29:41;9.83;;;4.00;;
4385;SDS011;2207;53.540;10.042;2023-06-19T13:32:08;5.30;;;3.90;;
4385;SDS011;2207;53.540;10.042;2023-06-19T13:34:36;10.40;;;4.37;;
4385;SDS011;2207;53.540;10.042;2023-06-19T13:37:03;5.43;;;4.93;;
4385;SDS011;2207;53.540;10.042;2023-06-19T13:39:30;7.93;;;5.13;;
4385;SDS011;2207;53.540;10.042;2023-06-19T13:41:57;6.73;;;5.03;;
4385;SDS011;2207;53.540;10.042;2023-06-19T13:44:25;7.53;;;5.80;;
4385;SDS011;2207;53.540;10.042;2023-06-19T13:46:52;6.23;;;5.70;;
4385;SDS011;2207;53.540;10.042;2023-06-19T13:49:19;8.43;;;5.70;;
4385;SDS011;2207;53.540;10.042;2023-06-19T13:51:47;5.70;;;5.20;;
4385;SDS011;2207;53.540;10.042;2023-06-19T13:54:14;6.70;;;5.80;;
4385;SDS011;2207;53.540;10.042;2023-06-19T13:56:40;6.03;;;5.33;;
4385;SDS011;2207;53.540;10.042;2023-06-19T13:59:07;5.80;;;5.30;;
4385;SDS011;2207;53.540;10.042;2023-06-19T14:01:34;9.70;;;5.20;;
4385;SDS011;2207;53.540;10.042;2023-06-19T14:04:01;7.07;;;6.07;;
4385;SDS011;2207;53.540;10.042;2023-06-19T14:06:27;5.80;;;5.17;;
4385;SDS011;2207;53.540;10.042;2023-06-19T14:08:56;12.93;;;7.87;;
4385;SDS011;2207;53.540;10.042;2023-06-19T14:11:23;9.30;;;7.63;;
4385;SDS011;2207;53.540;10.042;2023-06-19T14:13:50;20.17;;;7.90;;
